This is the latest recevied weather packets stored in our database for station/object N6GPM. If no packets are shown the sender has not sent any weather packets the latest 10 day(s).
| Time | Temp. | Humidity | Pressure | Rain* | Wind** | Luminosity | Snow |
|---|---|---|---|---|---|---|---|
| 1777844302 | 19.44° C | 66% | 1016.3 hPa | 0 mm | - | 393 W/m² | - |
| 1777842788 | 18.33° C | 71% | 1016.7 hPa | 0 mm | - | 740 W/m² | - |
| 1777842487 | 18.33° C | 71% | 1016.6 hPa | 0 mm | - | 368 W/m² | - |
| 1777841582 | 17.22° C | 74% | 1016.6 hPa | 0 mm | - | 691 W/m² | - |
| 1777840669 | 16.11° C | 79% | 1016.8 hPa | 0 mm | - | 612 W/m² | - |
| 1777840366 | 16.67° C | 78% | 1016.9 hPa | 0 mm | - | 379 W/m² | - |
| 1777840063 | 16.11° C | 80% | 1017 hPa | 0 mm | - | 511 W/m² | - |
| 1777839761 | 16.11° C | 80% | 1017 hPa | 0 mm | - | 333 W/m² | - |
| 1777838852 | 15.56° C | 81% | 1017.3 hPa | 0 mm | - | 478 W/m² | - |
| 1777837942 | 15° C | 87% | 1017.3 hPa | 0 mm | - | 816 W/m² | - |
| 1777837640 | 14.44° C | 87% | 1017.5 hPa | 0 mm | - | 421 W/m² | - |
| 1777837032 | 14.44° C | 88% | 1017.7 hPa | 0 mm | - | 343 W/m² | - |
| 1777836728 | 14.44° C | 88% | 1017.6 hPa | 0 mm | - | 337 W/m² | - |
| 1777835513 | 14.44° C | 87% | 1017.9 hPa | 0 mm | - | 121 W/m² | - |
| 1777835210 | 14.44° C | 87% | 1017.8 hPa | 0 mm | - | 148 W/m² | - |
| 1777833387 | 14.44° C | 87% | 1017.7 hPa | 0 mm | - | 262 W/m² | - |
| 1777833084 | 14.44° C | 88% | 1017.7 hPa | 0 mm | - | 374 W/m² | - |
| 1777832782 | 14.44° C | 88% | 1017.8 hPa | 0 mm | - | 223 W/m² | - |
| 1777832480 | 14.44° C | 88% | 1017.9 hPa | 0 mm | - | 189 W/m² | - |
| 1777832177 | 14.44° C | 88% | 1017.7 hPa | 0 mm | - | 203 W/m² | - |
| 1777831874 | 14.44° C | 88% | 1017.8 hPa | 0 mm | - | 212 W/m² | - |
| 1777831571 | 15° C | 87% | 1017.8 hPa | 0 mm | - | 195 W/m² | - |
| 1777830663 | 15.56° C | 85% | 1017.7 hPa | 0 mm | - | 149 W/m² | - |
| 1777829751 | 15° C | 79% | 1017.6 hPa | 0 mm | - | 136 W/m² | - |
| 1777829448 | 15° C | 80% | 1017.7 hPa | 0 mm | - | 135 W/m² | - |
* Rain latest hour (hover to see other rain measurements)
** Current wind speed in m/s (hover to see current wind gust speed)